Carterville, Texas
Current Conditions -  °F | °C
As of 5:15 PM on Wednesday 17 Dec 2014 (Local Time) from KASL Reporting Station
Broken Clouds Broken Clouds  
Wind Chill: 46°   Ceiling: 8000
Heat Index: 48°   Visibility: 10mi
Dew Point: 40°   Wind: 5mph
Humidity: 74%   Direction: 100°E
Pressure: 30.17"   Gusts: NA
Location:  33.0065°N, 94.3775°W
Report Text: KASL 172315Z AUTO 10004KT 10SM BKN080 09/05 A3017 RMK AO1 T00900045
Loading
Personal Weather Stations






























Interactive Weather Map New forecast layout! Learn more

10-Day Weather Forecast

Advertisements
Track Severe Weather on mobile